sensor_id;sensor_type;location;lat;lon;timestamp;P1;durP1;ratioP1;P2;durP2;ratioP2
57889;SDS011;43707;50.184;18.966;2023-03-01T00:01:14;7.40;;;4.70;;
57889;SDS011;43707;50.184;18.966;2023-03-01T00:03:42;5.90;;;4.20;;
57889;SDS011;43707;50.184;18.966;2023-03-01T00:06:07;7.00;;;4.50;;
57889;SDS011;43707;50.184;18.966;2023-03-01T00:08:33;7.40;;;4.80;;
57889;SDS011;43707;50.184;18.966;2023-03-01T00:11:18;4.90;;;3.50;;
57889;SDS011;43707;50.184;18.966;2023-03-01T00:13:46;6.70;;;4.60;;
57889;SDS011;43707;50.184;18.966;2023-03-01T00:16:26;6.20;;;4.00;;
57889;SDS011;43707;50.184;18.966;2023-03-01T00:18:54;5.60;;;4.00;;
57889;SDS011;43707;50.184;18.966;2023-03-01T00:21:20;7.10;;;4.40;;
57889;SDS011;43707;50.184;18.966;2023-03-01T00:23:47;6.10;;;4.70;;
57889;SDS011;43707;50.184;18.966;2023-03-01T00:26:16;6.40;;;4.40;;
57889;SDS011;43707;50.184;18.966;2023-03-01T00:28:43;7.40;;;5.20;;
57889;SDS011;43707;50.184;18.966;2023-03-01T00:31:13;7.60;;;4.80;;
57889;SDS011;43707;50.184;18.966;2023-03-01T00:33:40;7.30;;;5.00;;
57889;SDS011;43707;50.184;18.966;2023-03-01T00:36:07;8.50;;;5.30;;
57889;SDS011;43707;50.184;18.966;2023-03-01T00:38:40;6.70;;;5.00;;
57889;SDS011;43707;50.184;18.966;2023-03-01T00:41:09;10.20;;;6.10;;
57889;SDS011;43707;50.184;18.966;2023-03-01T00:43:36;9.20;;;5.60;;
57889;SDS011;43707;50.184;18.966;2023-03-01T00:46:05;8.70;;;5.20;;
57889;SDS011;43707;50.184;18.966;2023-03-01T00:48:36;8.70;;;5.10;;
57889;SDS011;43707;50.184;18.966;2023-03-01T00:51:08;8.90;;;5.80;;
57889;SDS011;43707;50.184;18.966;2023-03-01T00:53:36;9.60;;;5.60;;
57889;SDS011;43707;50.184;18.966;2023-03-01T00:56:01;6.80;;;4.90;;
57889;SDS011;43707;50.184;18.966;2023-03-01T00:58:28;7.40;;;5.70;;
57889;SDS011;43707;50.184;18.966;2023-03-01T01:00:53;11.00;;;6.30;;
57889;SDS011;43707;50.184;18.966;2023-03-01T01:03:19;9.90;;;6.10;;
57889;SDS011;43707;50.184;18.966;2023-03-01T01:05:44;10.90;;;6.20;;
57889;SDS011;43707;50.184;18.966;2023-03-01T01:08:10;12.40;;;5.80;;
57889;SDS011;43707;50.184;18.966;2023-03-01T01:10:35;9.10;;;6.00;;
57889;SDS011;43707;50.184;18.966;2023-03-01T01:13:00;11.00;;;6.70;;
57889;SDS011;43707;50.184;18.966;2023-03-01T01:15:26;9.90;;;6.00;;
57889;SDS011;43707;50.184;18.966;2023-03-01T01:17:51;9.60;;;6.10;;
57889;SDS011;43707;50.184;18.966;2023-03-01T01:20:17;11.30;;;6.80;;
57889;SDS011;43707;50.184;18.966;2023-03-01T01:22:43;11.90;;;7.60;;
57889;SDS011;43707;50.184;18.966;2023-03-01T01:25:09;11.10;;;6.70;;
57889;SDS011;43707;50.184;18.966;2023-03-01T01:27:35;12.30;;;6.60;;
57889;SDS011;43707;50.184;18.966;2023-03-01T01:30:01;9.40;;;5.90;;
57889;SDS011;43707;50.184;18.966;2023-03-01T01:32:26;8.90;;;6.20;;
57889;SDS011;43707;50.184;18.966;2023-03-01T01:34:52;9.60;;;6.80;;
57889;SDS011;43707;50.184;18.966;2023-03-01T01:37:17;8.90;;;5.90;;
57889;SDS011;43707;50.184;18.966;2023-03-01T01:39:42;8.00;;;5.60;;
57889;SDS011;43707;50.184;18.966;2023-03-01T01:42:17;8.20;;;5.50;;
57889;SDS011;43707;50.184;18.966;2023-03-01T01:44:46;9.40;;;5.50;;
57889;SDS011;43707;50.184;18.966;2023-03-01T01:47:13;9.70;;;6.10;;
57889;SDS011;43707;50.184;18.966;2023-03-01T01:49:42;8.10;;;5.70;;
57889;SDS011;43707;50.184;18.966;2023-03-01T01:52:26;9.50;;;6.20;;
57889;SDS011;43707;50.184;18.966;2023-03-01T01:54:57;8.60;;;6.20;;
57889;SDS011;43707;50.184;18.966;2023-03-01T01:57:37;8.80;;;5.90;;
57889;SDS011;43707;50.184;18.966;2023-03-01T02:00:06;10.00;;;6.20;;
57889;SDS011;43707;50.184;18.966;2023-03-01T02:05:05;6.80;;;4.90;;
57889;SDS011;43707;50.184;18.966;2023-03-01T02:07:36;10.00;;;6.10;;
57889;SDS011;43707;50.184;18.966;2023-03-01T02:10:04;8.50;;;6.40;;
57889;SDS011;43707;50.184;18.966;2023-03-01T02:12:29;8.30;;;5.20;;
57889;SDS011;43707;50.184;18.966;2023-03-01T02:14:56;9.60;;;6.10;;
57889;SDS011;43707;50.184;18.966;2023-03-01T02:17:22;8.40;;;5.50;;
57889;SDS011;43707;50.184;18.966;2023-03-01T02:19:59;7.40;;;5.40;;
57889;SDS011;43707;50.184;18.966;2023-03-01T02:22:43;7.00;;;5.30;;
57889;SDS011;43707;50.184;18.966;2023-03-01T02:30:24;11.00;;;5.80;;
57889;SDS011;43707;50.184;18.966;2023-03-01T02:32:51;9.60;;;6.00;;
57889;SDS011;43707;50.184;18.966;2023-03-01T02:35:17;9.70;;;6.00;;
57889;SDS011;43707;50.184;18.966;2023-03-01T02:37:43;8.10;;;5.50;;
57889;SDS011;43707;50.184;18.966;2023-03-01T02:40:10;10.40;;;6.40;;
57889;SDS011;43707;50.184;18.966;2023-03-01T02:42:41;10.80;;;6.70;;
57889;SDS011;43707;50.184;18.966;2023-03-01T02:45:12;8.70;;;6.10;;
57889;SDS011;43707;50.184;18.966;2023-03-01T02:47:38;10.20;;;7.00;;
57889;SDS011;43707;50.184;18.966;2023-03-01T02:50:09;8.90;;;6.20;;
57889;SDS011;43707;50.184;18.966;2023-03-01T02:55:25;9.30;;;6.50;;
57889;SDS011;43707;50.184;18.966;2023-03-01T02:57:52;10.10;;;6.00;;
57889;SDS011;43707;50.184;18.966;2023-03-01T03:00:19;8.00;;;5.70;;
57889;SDS011;43707;50.184;18.966;2023-03-01T03:02:47;7.10;;;5.20;;
57889;SDS011;43707;50.184;18.966;2023-03-01T03:05:16;8.40;;;5.50;;
57889;SDS011;43707;50.184;18.966;2023-03-01T03:07:43;7.30;;;4.80;;
57889;SDS011;43707;50.184;18.966;2023-03-01T03:10:13;9.20;;;5.20;;
57889;SDS011;43707;50.184;18.966;2023-03-01T03:12:40;7.10;;;4.70;;
57889;SDS011;43707;50.184;18.966;2023-03-01T03:15:07;7.20;;;5.80;;
57889;SDS011;43707;50.184;18.966;2023-03-01T03:17:37;7.50;;;5.10;;
57889;SDS011;43707;50.184;18.966;2023-03-01T03:20:05;6.00;;;4.30;;
57889;SDS011;43707;50.184;18.966;2023-03-01T03:22:39;6.30;;;4.60;;
57889;SDS011;43707;50.184;18.966;2023-03-01T03:25:06;6.30;;;4.50;;
57889;SDS011;43707;50.184;18.966;2023-03-01T03:27:36;6.70;;;4.60;;
57889;SDS011;43707;50.184;18.966;2023-03-01T03:30:03;5.90;;;4.50;;
57889;SDS011;43707;50.184;18.966;2023-03-01T03:32:34;7.60;;;5.00;;
57889;SDS011;43707;50.184;18.966;2023-03-01T03:35:07;5.00;;;4.30;;
57889;SDS011;43707;50.184;18.966;2023-03-01T03:37:40;5.80;;;4.30;;
57889;SDS011;43707;50.184;18.966;2023-03-01T03:40:24;6.90;;;4.70;;
57889;SDS011;43707;50.184;18.966;2023-03-01T03:42:50;6.40;;;4.20;;
57889;SDS011;43707;50.184;18.966;2023-03-01T03:45:16;6.00;;;5.10;;
57889;SDS011;43707;50.184;18.966;2023-03-01T03:47:42;15.10;;;5.10;;
57889;SDS011;43707;50.184;18.966;2023-03-01T03:50:12;6.90;;;5.10;;
57889;SDS011;43707;50.184;18.966;2023-03-01T03:52:39;8.10;;;6.20;;
57889;SDS011;43707;50.184;18.966;2023-03-01T03:55:05;7.90;;;5.30;;
57889;SDS011;43707;50.184;18.966;2023-03-01T03:57:35;8.20;;;5.60;;
57889;SDS011;43707;50.184;18.966;2023-03-01T04:00:01;8.00;;;5.40;;
57889;SDS011;43707;50.184;18.966;2023-03-01T04:02:29;5.50;;;4.90;;
57889;SDS011;43707;50.184;18.966;2023-03-01T04:04:55;7.30;;;5.50;;
57889;SDS011;43707;50.184;18.966;2023-03-01T04:07:20;7.20;;;5.40;;
57889;SDS011;43707;50.184;18.966;2023-03-01T04:09:45;7.50;;;5.80;;
57889;SDS011;43707;50.184;18.966;2023-03-01T04:12:11;6.30;;;5.30;;
57889;SDS011;43707;50.184;18.966;2023-03-01T04:14:36;7.60;;;5.60;;
57889;SDS011;43707;50.184;18.966;2023-03-01T04:17:02;6.90;;;5.00;;
57889;SDS011;43707;50.184;18.966;2023-03-01T04:19:30;8.30;;;5.40;;
57889;SDS011;43707;50.184;18.966;2023-03-01T04:22:01;5.50;;;4.80;;
57889;SDS011;43707;50.184;18.966;2023-03-01T04:24:36;8.40;;;5.00;;
57889;SDS011;43707;50.184;18.966;2023-03-01T04:27:02;9.90;;;5.20;;
57889;SDS011;43707;50.184;18.966;2023-03-01T04:29:27;7.00;;;5.00;;
57889;SDS011;43707;50.184;18.966;2023-03-01T04:31:53;6.40;;;4.80;;
57889;SDS011;43707;50.184;18.966;2023-03-01T04:34:18;9.90;;;5.40;;
57889;SDS011;43707;50.184;18.966;2023-03-01T04:36:44;6.90;;;5.60;;
57889;SDS011;43707;50.184;18.966;2023-03-01T04:39:09;6.70;;;5.10;;
57889;SDS011;43707;50.184;18.966;2023-03-01T04:41:38;7.50;;;5.00;;
57889;SDS011;43707;50.184;18.966;2023-03-01T04:44:08;6.20;;;4.40;;
57889;SDS011;43707;50.184;18.966;2023-03-01T04:46:34;6.50;;;5.00;;
57889;SDS011;43707;50.184;18.966;2023-03-01T04:49:01;6.10;;;5.10;;
57889;SDS011;43707;50.184;18.966;2023-03-01T04:51:26;6.80;;;4.90;;
57889;SDS011;43707;50.184;18.966;2023-03-01T04:53:52;8.50;;;5.20;;
57889;SDS011;43707;50.184;18.966;2023-03-01T04:56:17;6.80;;;4.80;;
57889;SDS011;43707;50.184;18.966;2023-03-01T04:58:43;6.80;;;4.80;;
57889;SDS011;43707;50.184;18.966;2023-03-01T05:01:10;6.40;;;4.70;;
57889;SDS011;43707;50.184;18.966;2023-03-01T05:03:39;9.00;;;5.70;;
57889;SDS011;43707;50.184;18.966;2023-03-01T05:06:05;6.60;;;4.80;;
57889;SDS011;43707;50.184;18.966;2023-03-01T05:08:30;6.50;;;4.70;;
57889;SDS011;43707;50.184;18.966;2023-03-01T05:10:59;5.10;;;4.30;;
57889;SDS011;43707;50.184;18.966;2023-03-01T05:13:24;7.40;;;4.80;;
57889;SDS011;43707;50.184;18.966;2023-03-01T05:15:53;6.10;;;4.90;;
57889;SDS011;43707;50.184;18.966;2023-03-01T05:18:20;6.70;;;5.00;;
57889;SDS011;43707;50.184;18.966;2023-03-01T05:20:46;8.00;;;5.10;;
57889;SDS011;43707;50.184;18.966;2023-03-01T05:23:13;5.80;;;4.20;;
57889;SDS011;43707;50.184;18.966;2023-03-01T05:25:38;7.90;;;5.20;;
57889;SDS011;43707;50.184;18.966;2023-03-01T05:28:06;6.90;;;5.10;;
57889;SDS011;43707;50.184;18.966;2023-03-01T05:30:33;6.40;;;4.70;;
57889;SDS011;43707;50.184;18.966;2023-03-01T05:32:59;5.90;;;5.10;;
57889;SDS011;43707;50.184;18.966;2023-03-01T05:35:25;6.80;;;5.40;;
57889;SDS011;43707;50.184;18.966;2023-03-01T05:37:51;6.60;;;5.10;;
57889;SDS011;43707;50.184;18.966;2023-03-01T05:40:18;8.30;;;4.30;;
57889;SDS011;43707;50.184;18.966;2023-03-01T05:42:45;6.10;;;4.90;;
57889;SDS011;43707;50.184;18.966;2023-03-01T05:45:13;6.70;;;4.20;;
57889;SDS011;43707;50.184;18.966;2023-03-01T05:47:40;9.40;;;5.50;;
57889;SDS011;43707;50.184;18.966;2023-03-01T05:50:09;6.00;;;4.70;;
57889;SDS011;43707;50.184;18.966;2023-03-01T05:52:36;6.40;;;5.00;;
57889;SDS011;43707;50.184;18.966;2023-03-01T05:55:02;7.20;;;4.80;;
57889;SDS011;43707;50.184;18.966;2023-03-01T05:57:30;6.60;;;4.70;;
57889;SDS011;43707;50.184;18.966;2023-03-01T05:59:55;6.20;;;4.70;;
57889;SDS011;43707;50.184;18.966;2023-03-01T06:02:21;8.30;;;5.10;;
57889;SDS011;43707;50.184;18.966;2023-03-01T06:04:46;6.40;;;4.70;;
57889;SDS011;43707;50.184;18.966;2023-03-01T06:07:12;5.00;;;4.40;;
57889;SDS011;43707;50.184;18.966;2023-03-01T06:09:37;5.70;;;4.30;;
57889;SDS011;43707;50.184;18.966;2023-03-01T06:12:02;5.40;;;3.80;;
57889;SDS011;43707;50.184;18.966;2023-03-01T06:14:28;6.30;;;3.90;;
57889;SDS011;43707;50.184;18.966;2023-03-01T06:16:53;5.30;;;4.30;;
57889;SDS011;43707;50.184;18.966;2023-03-01T06:19:19;5.20;;;4.20;;
57889;SDS011;43707;50.184;18.966;2023-03-01T06:21:44;5.90;;;4.60;;
57889;SDS011;43707;50.184;18.966;2023-03-01T06:24:09;6.70;;;4.50;;
57889;SDS011;43707;50.184;18.966;2023-03-01T06:26:35;6.50;;;4.40;;
57889;SDS011;43707;50.184;18.966;2023-03-01T06:29:00;6.50;;;4.60;;
57889;SDS011;43707;50.184;18.966;2023-03-01T06:31:26;6.20;;;4.10;;
57889;SDS011;43707;50.184;18.966;2023-03-01T06:33:51;7.00;;;4.70;;
57889;SDS011;43707;50.184;18.966;2023-03-01T06:36:16;6.80;;;5.00;;
57889;SDS011;43707;50.184;18.966;2023-03-01T06:38:44;6.70;;;4.70;;
57889;SDS011;43707;50.184;18.966;2023-03-01T06:41:09;7.90;;;4.60;;
57889;SDS011;43707;50.184;18.966;2023-03-01T06:43:35;7.00;;;4.40;;
57889;SDS011;43707;50.184;18.966;2023-03-01T06:46:03;6.70;;;4.70;;
57889;SDS011;43707;50.184;18.966;2023-03-01T06:48:30;6.70;;;4.50;;
57889;SDS011;43707;50.184;18.966;2023-03-01T06:50:57;6.40;;;4.80;;
57889;SDS011;43707;50.184;18.966;2023-03-01T06:53:24;6.70;;;4.90;;
57889;SDS011;43707;50.184;18.966;2023-03-01T06:55:53;8.20;;;6.10;;
57889;SDS011;43707;50.184;18.966;2023-03-01T06:58:22;6.50;;;5.40;;
57889;SDS011;43707;50.184;18.966;2023-03-01T07:00:47;8.10;;;5.20;;
57889;SDS011;43707;50.184;18.966;2023-03-01T07:03:15;6.40;;;4.80;;
57889;SDS011;43707;50.184;18.966;2023-03-01T07:05:41;6.60;;;4.80;;
57889;SDS011;43707;50.184;18.966;2023-03-01T07:08:06;7.80;;;5.50;;
57889;SDS011;43707;50.184;18.966;2023-03-01T07:10:31;7.90;;;5.20;;
57889;SDS011;43707;50.184;18.966;2023-03-01T07:12:57;6.20;;;4.90;;
57889;SDS011;43707;50.184;18.966;2023-03-01T07:15:23;5.70;;;5.00;;
57889;SDS011;43707;50.184;18.966;2023-03-01T07:17:49;7.80;;;5.50;;
57889;SDS011;43707;50.184;18.966;2023-03-01T07:20:16;7.00;;;5.50;;
57889;SDS011;43707;50.184;18.966;2023-03-01T07:22:43;8.10;;;5.40;;
57889;SDS011;43707;50.184;18.966;2023-03-01T07:25:09;8.20;;;5.80;;
57889;SDS011;43707;50.184;18.966;2023-03-01T07:27:35;6.60;;;4.90;;
57889;SDS011;43707;50.184;18.966;2023-03-01T07:30:01;7.80;;;5.80;;
57889;SDS011;43707;50.184;18.966;2023-03-01T07:32:27;8.70;;;6.00;;
57889;SDS011;43707;50.184;18.966;2023-03-01T07:34:52;7.90;;;5.90;;
57889;SDS011;43707;50.184;18.966;2023-03-01T07:37:18;7.10;;;5.20;;
57889;SDS011;43707;50.184;18.966;2023-03-01T07:39:43;17.30;;;5.80;;
57889;SDS011;43707;50.184;18.966;2023-03-01T07:42:08;7.00;;;4.50;;
57889;SDS011;43707;50.184;18.966;2023-03-01T07:44:34;5.50;;;4.30;;
57889;SDS011;43707;50.184;18.966;2023-03-01T07:47:00;9.80;;;4.10;;
57889;SDS011;43707;50.184;18.966;2023-03-01T07:49:25;6.60;;;2.90;;
57889;SDS011;43707;50.184;18.966;2023-03-01T07:51:52;6.60;;;3.40;;
57889;SDS011;43707;50.184;18.966;2023-03-01T07:54:18;5.00;;;3.90;;
57889;SDS011;43707;50.184;18.966;2023-03-01T07:56:43;4.40;;;3.20;;
57889;SDS011;43707;50.184;18.966;2023-03-01T07:59:09;3.50;;;3.00;;
57889;SDS011;43707;50.184;18.966;2023-03-01T08:01:34;3.90;;;3.40;;
57889;SDS011;43707;50.184;18.966;2023-03-01T08:04:00;4.80;;;3.10;;
57889;SDS011;43707;50.184;18.966;2023-03-01T08:06:26;4.50;;;3.30;;
57889;SDS011;43707;50.184;18.966;2023-03-01T08:08:52;5.50;;;3.20;;
57889;SDS011;43707;50.184;18.966;2023-03-01T08:11:20;3.70;;;3.20;;
57889;SDS011;43707;50.184;18.966;2023-03-01T08:13:47;3.70;;;2.80;;
57889;SDS011;43707;50.184;18.966;2023-03-01T08:16:14;3.80;;;3.40;;
57889;SDS011;43707;50.184;18.966;2023-03-01T08:18:40;4.70;;;2.80;;
57889;SDS011;43707;50.184;18.966;2023-03-01T08:21:09;4.20;;;2.70;;
57889;SDS011;43707;50.184;18.966;2023-03-01T08:23:36;4.80;;;3.40;;
57889;SDS011;43707;50.184;18.966;2023-03-01T08:26:13;2.20;;;2.00;;
57889;SDS011;43707;50.184;18.966;2023-03-01T08:28:40;3.30;;;2.60;;
57889;SDS011;43707;50.184;18.966;2023-03-01T08:31:19;3.70;;;2.70;;
57889;SDS011;43707;50.184;18.966;2023-03-01T08:33:53;3.10;;;2.20;;
57889;SDS011;43707;50.184;18.966;2023-03-01T08:36:21;3.50;;;2.10;;
57889;SDS011;43707;50.184;18.966;2023-03-01T08:38:47;3.00;;;1.90;;
57889;SDS011;43707;50.184;18.966;2023-03-01T08:41:13;4.00;;;2.50;;
57889;SDS011;43707;50.184;18.966;2023-03-01T08:43:39;2.60;;;1.80;;
57889;SDS011;43707;50.184;18.966;2023-03-01T08:46:05;2.10;;;1.70;;
57889;SDS011;43707;50.184;18.966;2023-03-01T08:48:30;2.10;;;1.90;;
57889;SDS011;43707;50.184;18.966;2023-03-01T08:50:56;2.10;;;1.40;;
57889;SDS011;43707;50.184;18.966;2023-03-01T08:53:21;2.00;;;1.40;;
57889;SDS011;43707;50.184;18.966;2023-03-01T08:55:46;1.90;;;1.40;;
57889;SDS011;43707;50.184;18.966;2023-03-01T08:58:12;1.40;;;1.20;;
57889;SDS011;43707;50.184;18.966;2023-03-01T09:00:37;1.90;;;1.20;;
57889;SDS011;43707;50.184;18.966;2023-03-01T09:03:03;1.90;;;1.20;;
57889;SDS011;43707;50.184;18.966;2023-03-01T09:05:31;3.70;;;1.10;;
57889;SDS011;43707;50.184;18.966;2023-03-01T09:07:57;1.90;;;1.30;;
57889;SDS011;43707;50.184;18.966;2023-03-01T09:10:22;2.00;;;1.30;;
57889;SDS011;43707;50.184;18.966;2023-03-01T09:12:48;2.20;;;1.40;;
57889;SDS011;43707;50.184;18.966;2023-03-01T09:15:13;1.70;;;1.00;;
57889;SDS011;43707;50.184;18.966;2023-03-01T09:17:39;1.60;;;1.10;;
57889;SDS011;43707;50.184;18.966;2023-03-01T09:20:04;1.30;;;0.90;;
57889;SDS011;43707;50.184;18.966;2023-03-01T09:22:32;1.70;;;1.30;;
57889;SDS011;43707;50.184;18.966;2023-03-01T09:24:59;1.40;;;0.90;;
57889;SDS011;43707;50.184;18.966;2023-03-01T09:27:24;1.90;;;1.10;;
57889;SDS011;43707;50.184;18.966;2023-03-01T09:29:50;1.40;;;1.10;;
57889;SDS011;43707;50.184;18.966;2023-03-01T09:32:15;1.50;;;0.90;;
57889;SDS011;43707;50.184;18.966;2023-03-01T09:34:41;1.30;;;1.00;;
57889;SDS011;43707;50.184;18.966;2023-03-01T09:37:26;1.60;;;1.20;;
57889;SDS011;43707;50.184;18.966;2023-03-01T09:39:51;0.80;;;0.70;;
57889;SDS011;43707;50.184;18.966;2023-03-01T09:42:17;1.20;;;0.80;;
57889;SDS011;43707;50.184;18.966;2023-03-01T09:44:47;2.30;;;1.10;;
57889;SDS011;43707;50.184;18.966;2023-03-01T09:47:23;2.00;;;1.00;;
57889;SDS011;43707;50.184;18.966;2023-03-01T09:49:58;1.20;;;1.00;;
57889;SDS011;43707;50.184;18.966;2023-03-01T09:54:59;1.90;;;0.90;;
57889;SDS011;43707;50.184;18.966;2023-03-01T10:00:00;1.00;;;0.80;;
57889;SDS011;43707;50.184;18.966;2023-03-01T10:10:46;1.30;;;0.80;;
57889;SDS011;43707;50.184;18.966;2023-03-01T10:15:51;1.80;;;0.90;;
57889;SDS011;43707;50.184;18.966;2023-03-01T10:18:30;2.10;;;1.30;;
57889;SDS011;43707;50.184;18.966;2023-03-01T10:21:01;2.00;;;1.10;;
57889;SDS011;43707;50.184;18.966;2023-03-01T10:26:09;2.00;;;1.10;;
57889;SDS011;43707;50.184;18.966;2023-03-01T10:29:04;1.70;;;1.30;;
57889;SDS011;43707;50.184;18.966;2023-03-01T10:31:40;1.50;;;1.30;;
57889;SDS011;43707;50.184;18.966;2023-03-01T10:34:20;1.70;;;1.30;;
57889;SDS011;43707;50.184;18.966;2023-03-01T10:36:48;1.40;;;1.30;;
57889;SDS011;43707;50.184;18.966;2023-03-01T10:39:20;2.40;;;1.20;;
57889;SDS011;43707;50.184;18.966;2023-03-01T10:41:58;1.70;;;1.20;;
57889;SDS011;43707;50.184;18.966;2023-03-01T10:47:12;2.20;;;1.50;;
57889;SDS011;43707;50.184;18.966;2023-03-01T10:49:39;2.40;;;2.00;;
57889;SDS011;43707;50.184;18.966;2023-03-01T10:52:21;1.40;;;1.20;;
57889;SDS011;43707;50.184;18.966;2023-03-01T10:54:54;1.50;;;1.20;;
57889;SDS011;43707;50.184;18.966;2023-03-01T10:57:29;2.00;;;1.40;;
57889;SDS011;43707;50.184;18.966;2023-03-01T11:00:05;1.50;;;1.10;;
57889;SDS011;43707;50.184;18.966;2023-03-01T11:02:48;2.40;;;1.20;;
57889;SDS011;43707;50.184;18.966;2023-03-01T11:05:20;1.30;;;1.00;;
57889;SDS011;43707;50.184;18.966;2023-03-01T11:07:50;1.00;;;0.90;;
57889;SDS011;43707;50.184;18.966;2023-03-01T11:10:26;2.00;;;1.50;;
57889;SDS011;43707;50.184;18.966;2023-03-01T11:12:53;1.00;;;0.80;;
57889;SDS011;43707;50.184;18.966;2023-03-01T11:15:23;1.60;;;1.00;;
57889;SDS011;43707;50.184;18.966;2023-03-01T11:17:51;1.60;;;1.20;;
57889;SDS011;43707;50.184;18.966;2023-03-01T11:20:27;2.00;;;1.00;;
57889;SDS011;43707;50.184;18.966;2023-03-01T11:22:57;1.60;;;1.10;;
57889;SDS011;43707;50.184;18.966;2023-03-01T11:25:27;1.40;;;1.10;;
57889;SDS011;43707;50.184;18.966;2023-03-01T11:27:55;1.90;;;1.10;;
57889;SDS011;43707;50.184;18.966;2023-03-01T11:36:16;1.90;;;1.40;;
57889;SDS011;43707;50.184;18.966;2023-03-01T11:39:12;2.20;;;1.50;;
57889;SDS011;43707;50.184;18.966;2023-03-01T11:41:46;1.90;;;1.30;;
57889;SDS011;43707;50.184;18.966;2023-03-01T11:44:16;1.70;;;1.40;;
57889;SDS011;43707;50.184;18.966;2023-03-01T12:07:38;1.80;;;1.60;;
57889;SDS011;43707;50.184;18.966;2023-03-01T12:10:33;2.90;;;1.70;;
57889;SDS011;43707;50.184;18.966;2023-03-01T12:21:27;1.20;;;1.00;;
57889;SDS011;43707;50.184;18.966;2023-03-01T12:26:36;1.70;;;1.30;;
57889;SDS011;43707;50.184;18.966;2023-03-01T12:29:16;1.50;;;1.10;;
57889;SDS011;43707;50.184;18.966;2023-03-01T12:31:48;1.70;;;1.30;;
57889;SDS011;43707;50.184;18.966;2023-03-01T12:34:36;1.70;;;1.30;;
57889;SDS011;43707;50.184;18.966;2023-03-01T12:37:21;1.20;;;1.10;;
57889;SDS011;43707;50.184;18.966;2023-03-01T12:43:10;1.20;;;1.00;;
57889;SDS011;43707;50.184;18.966;2023-03-01T12:51:11;1.60;;;1.20;;
57889;SDS011;43707;50.184;18.966;2023-03-01T12:53:41;2.60;;;1.00;;
57889;SDS011;43707;50.184;18.966;2023-03-01T12:56:10;1.80;;;1.50;;
57889;SDS011;43707;50.184;18.966;2023-03-01T13:09:18;1.80;;;1.40;;
57889;SDS011;43707;50.184;18.966;2023-03-01T13:11:48;2.70;;;1.10;;
57889;SDS011;43707;50.184;18.966;2023-03-01T13:16:51;1.00;;;0.90;;
57889;SDS011;43707;50.184;18.966;2023-03-01T13:19:18;1.10;;;0.90;;
57889;SDS011;43707;50.184;18.966;2023-03-01T13:21:45;1.70;;;1.40;;
57889;SDS011;43707;50.184;18.966;2023-03-01T13:29:31;1.20;;;1.00;;
57889;SDS011;43707;50.184;18.966;2023-03-01T13:32:19;1.60;;;1.20;;
57889;SDS011;43707;50.184;18.966;2023-03-01T13:34:50;1.60;;;1.50;;
57889;SDS011;43707;50.184;18.966;2023-03-01T13:37:22;1.40;;;1.20;;
57889;SDS011;43707;50.184;18.966;2023-03-01T13:39:54;2.30;;;1.40;;
57889;SDS011;43707;50.184;18.966;2023-03-01T13:42:33;1.30;;;1.00;;
57889;SDS011;43707;50.184;18.966;2023-03-01T13:45:05;1.60;;;1.50;;
57889;SDS011;43707;50.184;18.966;2023-03-01T13:47:41;1.80;;;1.10;;
57889;SDS011;43707;50.184;18.966;2023-03-01T13:50:15;1.50;;;1.10;;
57889;SDS011;43707;50.184;18.966;2023-03-01T13:52:59;1.30;;;1.00;;
57889;SDS011;43707;50.184;18.966;2023-03-01T13:58:16;1.40;;;1.10;;
57889;SDS011;43707;50.184;18.966;2023-03-01T14:00:42;1.30;;;1.00;;
57889;SDS011;43707;50.184;18.966;2023-03-01T14:05:33;0.60;;;0.60;;
57889;SDS011;43707;50.184;18.966;2023-03-01T14:07:59;2.20;;;1.20;;
57889;SDS011;43707;50.184;18.966;2023-03-01T14:10:29;0.90;;;0.70;;
57889;SDS011;43707;50.184;18.966;2023-03-01T14:18:40;1.00;;;0.90;;
57889;SDS011;43707;50.184;18.966;2023-03-01T14:21:35;1.20;;;0.90;;
57889;SDS011;43707;50.184;18.966;2023-03-01T14:24:01;1.60;;;1.00;;
57889;SDS011;43707;50.184;18.966;2023-03-01T14:26:26;3.60;;;0.90;;
57889;SDS011;43707;50.184;18.966;2023-03-01T14:28:52;1.20;;;0.70;;
57889;SDS011;43707;50.184;18.966;2023-03-01T14:31:51;1.50;;;1.00;;
57889;SDS011;43707;50.184;18.966;2023-03-01T14:34:18;1.10;;;0.90;;
57889;SDS011;43707;50.184;18.966;2023-03-01T14:36:45;1.10;;;0.80;;
57889;SDS011;43707;50.184;18.966;2023-03-01T14:39:17;1.60;;;0.80;;
57889;SDS011;43707;50.184;18.966;2023-03-01T14:41:44;1.30;;;0.80;;
57889;SDS011;43707;50.184;18.966;2023-03-01T14:44:19;1.30;;;1.00;;
57889;SDS011;43707;50.184;18.966;2023-03-01T14:46:51;1.00;;;0.90;;
57889;SDS011;43707;50.184;18.966;2023-03-01T14:49:24;0.90;;;0.80;;
57889;SDS011;43707;50.184;18.966;2023-03-01T14:54:36;1.30;;;0.90;;
57889;SDS011;43707;50.184;18.966;2023-03-01T14:57:19;1.70;;;1.00;;
57889;SDS011;43707;50.184;18.966;2023-03-01T14:59:52;1.00;;;0.70;;
57889;SDS011;43707;50.184;18.966;2023-03-01T15:02:21;1.10;;;0.80;;
57889;SDS011;43707;50.184;18.966;2023-03-01T15:04:49;2.30;;;1.10;;
57889;SDS011;43707;50.184;18.966;2023-03-01T15:07:21;0.80;;;0.80;;
57889;SDS011;43707;50.184;18.966;2023-03-01T15:09:48;1.10;;;0.90;;
57889;SDS011;43707;50.184;18.966;2023-03-01T15:14:55;1.80;;;1.40;;
57889;SDS011;43707;50.184;18.966;2023-03-01T15:19:53;1.60;;;1.30;;
57889;SDS011;43707;50.184;18.966;2023-03-01T15:22:18;1.30;;;0.80;;
57889;SDS011;43707;50.184;18.966;2023-03-01T15:24:48;1.40;;;0.90;;
57889;SDS011;43707;50.184;18.966;2023-03-01T15:27:18;1.10;;;0.80;;
57889;SDS011;43707;50.184;18.966;2023-03-01T15:29:50;1.40;;;1.10;;
57889;SDS011;43707;50.184;18.966;2023-03-01T15:32:32;3.70;;;1.10;;
57889;SDS011;43707;50.184;18.966;2023-03-01T15:34:59;1.90;;;1.60;;
57889;SDS011;43707;50.184;18.966;2023-03-01T15:37:37;2.30;;;1.60;;
57889;SDS011;43707;50.184;18.966;2023-03-01T15:42:59;3.30;;;2.30;;
57889;SDS011;43707;50.184;18.966;2023-03-01T15:45:27;3.20;;;2.50;;
57889;SDS011;43707;50.184;18.966;2023-03-01T15:47:57;2.80;;;2.00;;
57889;SDS011;43707;50.184;18.966;2023-03-01T15:50:27;2.20;;;1.60;;
57889;SDS011;43707;50.184;18.966;2023-03-01T15:52:54;1.80;;;1.30;;
57889;SDS011;43707;50.184;18.966;2023-03-01T15:55:21;1.60;;;1.30;;
57889;SDS011;43707;50.184;18.966;2023-03-01T15:57:49;1.50;;;1.20;;
57889;SDS011;43707;50.184;18.966;2023-03-01T16:00:15;1.80;;;1.30;;
57889;SDS011;43707;50.184;18.966;2023-03-01T16:02:42;1.80;;;1.30;;
57889;SDS011;43707;50.184;18.966;2023-03-01T16:05:31;1.90;;;1.50;;
57889;SDS011;43707;50.184;18.966;2023-03-01T16:07:56;1.70;;;1.20;;
57889;SDS011;43707;50.184;18.966;2023-03-01T16:10:21;1.50;;;1.30;;
57889;SDS011;43707;50.184;18.966;2023-03-01T16:12:47;1.40;;;0.90;;
57889;SDS011;43707;50.184;18.966;2023-03-01T16:15:14;1.50;;;1.20;;
57889;SDS011;43707;50.184;18.966;2023-03-01T16:17:43;2.20;;;1.40;;
57889;SDS011;43707;50.184;18.966;2023-03-01T16:20:09;1.90;;;1.20;;
57889;SDS011;43707;50.184;18.966;2023-03-01T16:22:34;1.60;;;1.20;;
57889;SDS011;43707;50.184;18.966;2023-03-01T16:25:00;1.10;;;0.90;;
57889;SDS011;43707;50.184;18.966;2023-03-01T16:27:25;1.80;;;1.30;;
57889;SDS011;43707;50.184;18.966;2023-03-01T16:29:50;1.40;;;1.00;;
57889;SDS011;43707;50.184;18.966;2023-03-01T16:32:16;1.40;;;1.20;;
57889;SDS011;43707;50.184;18.966;2023-03-01T16:34:41;2.10;;;1.50;;
57889;SDS011;43707;50.184;18.966;2023-03-01T16:37:06;1.60;;;1.20;;
57889;SDS011;43707;50.184;18.966;2023-03-01T16:39:32;2.50;;;1.50;;
57889;SDS011;43707;50.184;18.966;2023-03-01T16:41:59;2.70;;;1.80;;